Time;durP1;ratioP1;P1;durP2;ratioP2;P2;SDS_P1;SDS_P2;PMS_P1;PMS_P2;Temp;Humidity;BMP_temperature;BMP_pressure;BME280_temperature;BME280_humidity;BME280_pressure;Samples;Min_cycle;Max_cycle;Signal;HPM_P1;HPM_P2
2023/07/23 00:01:41;;;;;;;3.40;3.08;;;;;;;-145.68;62.36;73295.94;10454503;28;20680;-69
2023/07/23 00:06:42;;;;;;;5.60;3.45;;;;;;;-145.68;62.43;73285.94;10454318;28;20705;-68
2023/07/23 00:11:42;;;;;;;6.72;3.45;;;;;;;-145.68;62.32;73283.94;10454133;28;20271;-69
2023/07/23 00:16:43;;;;;;;4.25;3.50;;;;;;;-145.68;62.99;73293.94;10453943;28;20212;-69
2023/07/23 00:21:43;;;;;;;8.05;3.35;;;;;;;-145.68;62.76;73283.94;10453781;28;20196;-69
2023/07/23 00:26:44;;;;;;;4.03;3.00;;;;;;;-145.68;63.11;73285.94;10453496;28;20238;-69
2023/07/23 00:31:44;;;;;;;4.78;3.50;;;;;;;-145.68;63.04;73279.94;10453458;28;20561;-68
2023/07/23 00:36:44;;;;;;;5.03;2.85;;;;;;;-145.68;63.32;73287.94;10453257;28;20265;-69
2023/07/23 00:41:45;;;;;;;3.65;3.17;;;;;;;-145.68;63.60;73287.94;10453212;28;20192;-69
2023/07/23 00:46:45;;;;;;;7.18;3.13;;;;;;;-145.68;63.88;73281.94;10435021;28;20231;-68
2023/07/23 00:51:46;;;;;;;4.53;3.42;;;;;;;-145.68;63.55;73267.94;10434888;28;20179;-68
2023/07/23 00:56:47;;;;;;;3.95;2.95;;;;;;;-145.68;63.21;73275.94;10434842;28;20199;-68
2023/07/23 01:01:48;;;;;;;4.03;3.00;;;;;;;-145.68;62.94;73251.94;10452399;28;20192;-68
2023/07/23 01:06:49;;;;;;;5.28;2.97;;;;;;;-145.68;61.73;73209.97;10452111;28;20293;-68
2023/07/23 01:11:50;;;;;;;3.45;2.80;;;;;;;-145.68;60.74;73190.00;10452646;28;20269;-68
2023/07/23 01:16:51;;;;;;;2.90;2.50;;;;;;;-145.68;59.88;73160.00;10450836;28;20204;-68
2023/07/23 01:22:05;;;;;;;5.70;2.95;;;;;;;-145.68;59.70;73156.00;10450898;28;20195;-69
2023/07/23 01:27:05;;;;;;;3.95;2.72;;;;;;;-145.68;59.58;73150.03;10467301;28;20230;-68
2023/07/23 01:32:06;;;;;;;4.07;3.05;;;;;;;-145.68;58.90;73132.03;10451723;28;20890;-68
2023/07/23 01:37:08;;;;;;;4.70;2.53;;;;;;;-145.68;58.86;73132.03;10451781;28;20367;-68
2023/07/23 01:42:11;;;;;;;3.08;2.60;;;;;;;-145.68;59.10;73130.03;10433886;28;20212;-68
2023/07/23 01:47:11;;;;;;;3.88;3.03;;;;;;;-145.68;58.70;73128.03;10451576;28;20216;-68
2023/07/23 01:52:12;;;;;;;4.22;3.20;;;;;;;-145.68;58.93;73132.03;10451408;28;20192;-69
2023/07/23 01:57:12;;;;;;;6.43;2.80;;;;;;;-145.68;58.28;73116.03;10433785;28;20302;-69
2023/07/23 02:02:13;;;;;;;5.05;2.80;;;;;;;-145.68;57.98;73090.06;10433418;28;20192;-69
2023/07/23 02:07:14;;;;;;;5.05;2.47;;;;;;;-145.68;57.01;73060.09;10451275;28;20224;-68
2023/07/23 02:12:14;;;;;;;4.65;2.95;;;;;;;-145.68;56.68;73044.09;10451056;28;20187;-69
2023/07/23 02:17:15;;;;;;;2.65;2.30;;;;;;;-145.68;56.27;73026.09;10455261;28;20642;-68
2023/07/23 02:22:17;;;;;;;3.25;2.78;;;;;;;-145.68;55.69;73010.13;10440339;28;20253;-69
2023/07/23 02:27:17;;;;;;;4.78;2.80;;;;;;;-145.68;54.98;72992.13;10458355;28;20254;-69
2023/07/23 02:32:18;;;;;;;3.60;2.97;;;;;;;-145.68;54.45;72988.13;10458031;28;20230;-69
2023/07/23 02:37:18;;;;;;;3.85;2.55;;;;;;;-145.68;54.66;72988.13;10457818;28;20176;-69
2023/07/23 02:42:19;;;;;;;2.90;2.65;;;;;;;-145.68;53.54;72956.16;10439954;28;20628;-69
2023/07/23 02:47:19;;;;;;;5.00;3.08;;;;;;;-145.68;53.54;72960.16;10457466;28;20269;-68
2023/07/23 02:52:19;;;;;;;3.28;2.92;;;;;;;-145.68;52.21;72920.19;10457286;28;20188;-69
2023/07/23 02:57:20;;;;;;;3.58;2.53;;;;;;;-145.68;52.29;72922.19;10457034;28;20730;-69
2023/07/23 03:02:20;;;;;;;6.50;3.30;;;;;;;-145.68;52.32;72930.19;10456484;28;20220;-69
2023/07/23 03:07:21;;;;;;;4.70;3.10;;;;;;;-145.68;51.73;72910.19;10438808;28;20338;-69
2023/07/23 03:12:21;;;;;;;6.53;2.70;;;;;;;-145.68;51.14;72902.19;10456665;28;20220;-69
2023/07/23 03:17:21;;;;;;;3.58;2.63;;;;;;;-145.68;50.93;72884.22;10456438;28;20184;-69
2023/07/23 03:22:22;;;;;;;4.28;3.08;;;;;;;-145.68;50.83;72884.22;10455749;28;20238;-69
2023/07/23 03:27:22;;;;;;;4.97;3.25;;;;;;;-145.68;50.66;72876.22;10438132;28;20227;-68
2023/07/23 03:32:23;;;;;;;3.78;2.97;;;;;;;-145.68;50.57;72876.22;10455260;28;20731;-69
2023/07/23 03:37:23;;;;;;;4.03;2.95;;;;;;;-145.68;50.36;72860.22;10455231;28;20678;-69
2023/07/23 03:42:24;;;;;;;5.80;2.80;;;;;;;-145.68;50.31;72866.22;10454750;28;20272;-69
2023/07/23 03:47:24;;;;;;;3.55;2.72;;;;;;;-145.68;50.20;72854.25;10454828;28;20560;-69
2023/07/23 03:52:25;;;;;;;5.57;2.80;;;;;;;-145.68;50.12;72848.25;10454970;28;20321;-68
2023/07/23 03:57:25;;;;;;;3.55;2.80;;;;;;;-145.68;50.16;72852.25;10454536;28;20187;-70
2023/07/23 04:02:26;;;;;;;4.13;2.92;;;;;;;-145.68;49.96;72844.25;10454769;28;20207;-70
2023/07/23 04:07:26;;;;;;;6.95;3.05;;;;;;;-145.68;49.98;72836.25;10454217;28;20226;-70
2023/07/23 04:12:26;;;;;;;3.05;2.65;;;;;;;-145.68;49.31;72808.28;10437039;28;20261;-70
2023/07/23 04:17:27;;;;;;;7.05;2.83;;;;;;;-145.68;49.00;72800.28;10454167;28;20198;-70
2023/07/23 04:22:27;;;;;;;3.80;2.90;;;;;;;-145.68;48.89;72802.28;10453593;28;20294;-70
2023/07/23 04:27:28;;;;;;;3.78;2.92;;;;;;;-145.68;48.86;72782.28;10453742;28;20215;-70
2023/07/23 04:32:28;;;;;;;4.10;2.97;;;;;;;-145.68;48.47;72778.28;10453390;28;20214;-70
2023/07/23 04:37:28;;;;;;;6.38;3.08;;;;;;;-145.68;48.51;72774.31;10453177;28;20183;-70
2023/07/23 04:42:29;;;;;;;5.18;2.40;;;;;;;-145.68;48.94;72790.28;10452784;28;20207;-70
2023/07/23 04:47:29;;;;;;;5.40;2.70;;;;;;;-145.68;49.04;72788.28;10452918;28;20350;-70
2023/07/23 04:52:29;;;;;;;3.80;2.90;;;;;;;-145.68;49.49;72802.28;10452646;28;20215;-70
2023/07/23 04:57:30;;;;;;;5.47;2.50;;;;;;;-145.68;49.29;72800.28;10452709;28;20217;-70
2023/07/23 05:02:30;;;;;;;5.55;2.60;;;;;;;-145.68;49.48;72798.28;10452385;28;20302;-70
2023/07/23 05:07:31;;;;;;;3.92;3.03;;;;;;;-145.68;49.28;72750.31;10452394;28;20694;-70
2023/07/23 05:12:31;;;;;;;3.72;2.65;;;;;;;-145.68;49.01;72690.38;10452386;28;20581;-70
2023/07/23 05:17:31;;;;;;;3.50;2.70;;;;;;;-145.68;47.79;72636.41;10452243;28;20535;-70
2023/07/23 05:22:39;;;;;;;6.50;3.17;;;;;;;-145.68;46.76;72608.44;10460757;22;20244;-68
2023/07/23 05:27:39;;;;;;;4.20;2.63;;;;;;;-145.68;46.22;72578.47;10366823;28;20221;-67
2023/07/23 05:32:39;;;;;;;4.05;2.40;;;;;;;-145.68;46.18;72568.47;10374481;28;20215;-66
2023/07/23 05:37:40;;;;;;;7.60;3.00;;;;;;;-145.68;46.36;72578.47;10410624;28;20276;-66
2023/07/23 05:42:40;;;;;;;3.45;2.53;;;;;;;-145.68;45.79;72548.47;10410407;28;20251;-65
2023/07/23 05:47:41;;;;;;;3.45;2.65;;;;;;;-145.68;44.92;72536.50;10411064;28;20570;-65
2023/07/23 05:52:41;;;;;;;4.90;2.80;;;;;;;-145.68;45.04;72512.50;10455220;28;20613;-65
2023/07/23 05:57:41;;;;;;;3.42;2.50;;;;;;;-145.68;44.43;72494.53;10458192;28;20543;-67
2023/07/23 06:02:42;;;;;;;2.85;2.40;;;;;;;-145.68;44.39;72446.56;10458021;28;20211;-66
2023/07/23 06:07:42;;;;;;;4.65;2.55;;;;;;;-145.68;44.34;72428.59;10458184;28;20223;-66
2023/07/23 06:12:42;;;;;;;3.85;2.85;;;;;;;-145.68;43.31;72436.56;10458776;28;20307;-66
2023/07/23 06:17:43;;;;;;;5.25;2.88;;;;;;;-145.68;42.93;72398.63;10457632;28;20180;-66
2023/07/23 06:22:43;;;;;;;10.20;3.28;;;;;;;-145.68;42.75;72416.59;10457309;28;20356;-66
2023/07/23 06:27:43;;;;;;;3.53;3.00;;;;;;;-145.68;43.35;72422.59;10457083;28;20212;-66
2023/07/23 06:32:44;;;;;;;3.83;2.67;;;;;;;-145.68;43.35;72412.59;10457397;28;20290;-66
2023/07/23 06:37:44;;;;;;;4.80;3.08;;;;;;;-145.68;44.09;72406.59;10457323;28;20194;-67
2023/07/23 06:42:45;;;;;;;4.50;3.03;;;;;;;-145.68;43.12;72372.63;10457762;28;20278;-66
2023/07/23 06:47:45;;;;;;;5.57;3.10;;;;;;;-145.68;43.30;72422.59;10457390;28;20232;-66
2023/07/23 06:52:46;;;;;;;4.82;3.40;;;;;;;-145.68;43.38;72396.63;10457042;28;20580;-67
2023/07/23 06:57:46;;;;;;;6.32;3.80;;;;;;;-145.68;42.78;72364.63;10457320;28;20267;-67
2023/07/23 07:02:47;;;;;;;4.93;3.38;;;;;;;-145.68;41.44;72246.75;10456324;28;20306;-66
2023/07/23 07:07:47;;;;;;;4.68;3.45;;;;;;;-145.68;40.38;72166.81;10456813;28;20223;-65
2023/07/23 07:12:47;;;;;;;4.20;3.10;;;;;;;-145.68;39.93;72132.84;10448829;28;20212;-66
2023/07/23 07:17:48;;;;;;;4.03;3.42;;;;;;;-145.68;41.06;72284.72;10456389;28;20673;-67
2023/07/23 07:22:48;;;;;;;3.80;3.25;;;;;;;-145.68;41.46;72280.72;10454171;28;20231;-66
2023/07/23 07:27:49;;;;;;;3.55;2.70;;;;;;;-145.68;41.36;72274.72;10448465;28;20212;-67
2023/07/23 07:32:52;;;;;;;6.45;3.03;;;;;;;-145.68;41.49;72222.78;10454908;28;20263;-66
2023/07/23 07:37:52;;;;;;;4.35;2.60;;;;;;;-145.68;40.20;72172.81;10455299;28;20230;-68
2023/07/23 07:42:53;;;;;;;4.00;2.78;;;;;;;-145.68;39.38;72200.78;10455456;28;20212;-66
2023/07/23 07:47:53;;;;;;;4.03;2.90;;;;;;;-145.68;39.82;72216.78;10454980;28;20219;-66
2023/07/23 07:52:53;;;;;;;3.08;2.78;;;;;;;-145.68;39.23;72086.91;10454719;28;20208;-68
2023/07/23 07:57:54;;;;;;;4.35;2.88;;;;;;;-145.68;39.62;72166.81;10454860;28;20722;-66
2023/07/23 08:02:54;;;;;;;7.65;3.08;;;;;;;-145.68;39.44;72130.84;10454082;28;20568;-67
2023/07/23 08:07:56;;;;;;;6.05;2.90;;;;;;;-145.68;39.06;72034.94;10454564;28;20219;-66
2023/07/23 08:12:56;;;;;;;5.32;2.80;;;;;;;-145.68;38.78;72080.91;10487867;28;20261;-66
2023/07/23 08:17:59;;;;;;;4.38;3.17;;;;;;;-145.68;38.14;72054.94;10475892;28;20184;-66
2023/07/23 08:22:59;;;;;;;3.65;2.33;;;;;;;-145.68;38.50;71985.00;10453547;28;20246;-66
2023/07/23 08:28:01;;;;;;;5.10;2.80;;;;;;;-145.68;38.62;72108.88;10452218;28;20219;-67
2023/07/23 08:33:01;;;;;;;4.18;2.75;;;;;;;-145.68;39.05;72054.94;10451185;28;20598;-67
2023/07/23 08:38:02;;;;;;;3.60;2.40;;;;;;;-145.68;37.97;71983.00;10452980;28;20194;-68
2023/07/23 08:43:32;;;;;;;3.42;2.55;;;;;;;-145.68;37.59;71977.00;10452972;28;20223;-66
2023/07/23 08:48:54;;;;;;;4.72;2.83;;;;;;;-145.68;37.45;71877.09;10452635;28;20331;-68
2023/07/23 08:53:55;;;;;;;2.67;2.33;;;;;;;-145.68;37.56;71889.09;10452351;28;20204;-66
2023/07/23 08:58:55;;;;;;;3.47;2.33;;;;;;;-145.68;36.15;71799.19;10434499;28;20234;-66
2023/07/23 09:03:56;;;;;;;2.55;1.95;;;;;;;-145.68;36.23;71843.13;10434310;28;20216;-66
2023/07/23 09:09:01;;;;;;;6.13;2.63;;;;;;;-145.68;36.96;71985.00;10452080;28;20223;-67
2023/07/23 09:14:10;;;;;;;4.30;2.40;;;;;;;-145.68;38.19;72046.94;10451967;28;20239;-68
2023/07/23 09:19:11;;;;;;;3.53;2.45;;;;;;;-145.68;37.55;72036.94;10452021;28;20195;-66
2023/07/23 09:24:14;;;;;;;4.88;2.20;;;;;;;-145.68;36.50;71923.06;10452592;28;20231;-66
2023/07/23 09:29:15;;;;;;;3.45;2.42;;;;;;;-145.68;37.10;71925.06;10460527;28;20224;-67
2023/07/23 09:34:19;;;;;;;2.65;2.45;;;;;;;-145.68;36.21;71921.06;10458585;28;20215;-67
2023/07/23 09:39:25;;;;;;;1.80;1.55;;;;;;;-145.68;34.41;71805.19;10459993;28;20245;-66
2023/07/23 09:44:25;;;;;;;5.90;2.30;;;;;;;-145.68;34.02;71817.16;10459973;28;20239;-67
2023/07/23 09:49:32;;;;;;;2.67;2.00;;;;;;;-145.68;34.65;71779.19;10459474;28;20655;-66
2023/07/23 09:54:34;;;;;;;2.90;2.20;;;;;;;-145.68;35.21;71903.06;10459573;28;20724;-67
2023/07/23 09:59:36;;;;;;;2.83;2.20;;;;;;;-145.68;34.85;71907.06;10441495;28;20238;-67
2023/07/23 10:04:37;;;;;;;4.72;2.20;;;;;;;-145.68;34.88;71907.06;10459074;28;20202;-67
2023/07/23 10:09:37;;;;;;;3.25;2.17;;;;;;;-145.68;33.58;71821.16;10459079;28;20219;-67
2023/07/23 10:14:38;;;;;;;7.40;2.00;;;;;;;-145.68;34.21;71887.09;10458530;28;20214;-66
2023/07/23 10:19:40;;;;;;;2.78;2.25;;;;;;;-145.68;33.68;71723.25;10440809;28;20560;-66
2023/07/23 10:24:41;;;;;;;3.17;2.08;;;;;;;-145.68;32.68;71747.25;10440354;28;20662;-66
2023/07/23 10:30:20;;;;;;;8.10;2.90;;;;;;;-145.68;33.30;71761.22;10457951;28;20216;-66
2023/07/23 10:35:55;;;;;;;2.63;2.42;;;;;;;-145.68;33.84;71875.09;10457551;28;20581;-67
2023/07/23 10:40:56;;;;;;;4.70;2.83;;;;;;;-145.68;33.57;71895.09;10457494;28;20678;-66
2023/07/23 10:46:07;;;;;;;5.32;2.78;;;;;;;-145.68;34.09;71827.16;10457218;28;20311;-67
2023/07/23 10:51:18;;;;;;;3.85;2.92;;;;;;;-145.68;33.92;71787.19;10457483;28;20206;-66
2023/07/23 10:56:24;;;;;;;4.00;2.78;;;;;;;-145.68;33.05;71721.25;10457044;28;20660;-66
2023/07/23 11:01:26;;;;;;;5.68;3.05;;;;;;;-145.68;33.52;71713.28;10456858;28;20265;-66
2023/07/23 11:06:31;;;;;;;3.17;2.53;;;;;;;-145.68;34.37;71763.22;10456503;28;20220;-67
2023/07/23 11:11:39;;;;;;;5.68;3.17;;;;;;;-145.68;34.04;71741.25;10456824;28;20275;-66
2023/07/23 11:16:40;;;;;;;3.50;2.60;;;;;;;-145.68;33.81;71627.38;10456217;28;20223;-67
2023/07/23 11:21:57;;;;;;;4.47;2.70;;;;;;;-145.68;34.56;71737.25;10456116;28;20584;-67
2023/07/23 11:27:02;;;;;;;3.78;2.63;;;;;;;-145.68;34.20;71653.34;10375226;28;20236;-64
2023/07/23 11:32:03;;;;;;;3.17;2.55;;;;;;;-145.68;33.65;71625.38;10373923;28;20193;-64
2023/07/23 11:37:08;;;;;;;4.28;2.78;;;;;;;-145.68;33.87;71673.31;10373486;28;20248;-64
2023/07/23 11:42:16;;;;;;;3.65;2.88;;;;;;;-145.68;34.10;71669.31;10373272;28;20193;-65
2023/07/23 11:47:17;;;;;;;3.75;2.95;;;;;;;-145.68;33.74;71595.41;10372368;28;20224;-64
2023/07/23 11:52:23;;;;;;;3.42;2.45;;;;;;;-145.68;33.21;71663.31;10372367;28;20277;-65
2023/07/23 11:57:26;;;;;;;4.40;2.47;;;;;;;-145.68;33.14;71673.31;10372709;28;20244;-65
2023/07/23 12:02:26;;;;;;;4.32;2.50;;;;;;;-145.68;32.72;71653.34;10372483;28;20193;-66
2023/07/23 12:07:28;;;;;;;5.85;4.95;;;;;;;-145.68;32.92;71681.31;10370899;28;20675;-65
2023/07/23 12:12:29;;;;;;;4.95;3.92;;;;;;;-145.68;32.72;71665.31;10371997;28;20193;-64
2023/07/23 12:17:29;;;;;;;8.32;3.40;;;;;;;-145.68;33.41;71719.25;10372106;28;20628;-64
2023/07/23 12:22:30;;;;;;;4.95;3.63;;;;;;;-145.68;33.02;71597.41;10374071;28;20185;-64
2023/07/23 12:27:30;;;;;;;5.65;3.40;;;;;;;-145.68;32.86;71567.44;10453469;28;20709;-64
2023/07/23 12:32:31;;;;;;;5.57;2.92;;;;;;;-145.68;32.92;71657.34;10453288;28;20219;-65
2023/07/23 12:37:34;;;;;;;4.40;2.30;;;;;;;-145.68;33.17;71617.38;10453590;28;20176;-65
2023/07/23 12:42:35;;;;;;;5.30;2.92;;;;;;;-145.68;33.48;71569.44;10452923;28;20219;-65
2023/07/23 12:47:35;;;;;;;4.55;2.65;;;;;;;-145.68;32.89;71453.56;10452556;28;20705;-65
2023/07/23 12:52:35;;;;;;;3.40;3.00;;;;;;;-145.68;32.81;71603.38;10452857;28;20204;-65
2023/07/23 12:57:36;;;;;;;4.25;2.25;;;;;;;-145.68;32.64;71591.41;10452704;28;20187;-65
2023/07/23 13:02:36;;;;;;;6.03;2.88;;;;;;;-145.68;32.92;71687.31;10452258;28;20242;-65
2023/07/23 13:07:39;;;;;;;3.67;3.38;;;;;;;-145.68;31.32;71701.28;10452277;28;20216;-65
2023/07/23 13:12:39;;;;;;;3.97;3.58;;;;;;;-145.68;31.55;71685.31;10452298;28;20382;-65
2023/07/23 13:17:40;;;;;;;3.88;3.45;;;;;;;-145.68;31.30;71635.34;10452233;28;20272;-65
2023/07/23 13:22:40;;;;;;;3.05;2.47;;;;;;;-145.68;31.72;71629.38;10451626;28;20227;-65
2023/07/23 13:27:41;;;;;;;3.80;3.25;;;;;;;-145.68;32.23;71599.41;10451996;28;20227;-65
2023/07/23 13:32:41;;;;;;;7.80;3.60;;;;;;;-145.68;31.62;71525.47;10451709;28;20211;-65
2023/07/23 13:37:41;;;;;;;4.07;2.50;;;;;;;-145.68;30.54;71515.47;10451957;28;20180;-65
2023/07/23 13:42:42;;;;;;;4.30;2.53;;;;;;;-145.68;31.17;71487.50;10451447;28;20457;-64
2023/07/23 13:47:42;;;;;;;3.03;2.40;;;;;;;-145.68;31.62;71553.44;10451606;28;20222;-65
2023/07/23 13:52:43;;;;;;;3.35;2.38;;;;;;;-145.68;31.46;71455.56;10451318;28;20466;-65
2023/07/23 13:57:43;;;;;;;2.67;2.28;;;;;;;-145.68;31.82;71513.50;10485459;28;20612;-65
2023/07/23 14:02:43;;;;;;;6.10;2.92;;;;;;;-145.68;32.20;71445.56;10492683;28;20575;-65
2023/07/23 14:07:45;;;;;;;2.80;2.27;;;;;;;-145.68;31.74;71357.66;10492280;28;20223;-65
2023/07/23 14:12:46;;;;;;;3.40;2.70;;;;;;;-145.68;31.87;71425.59;10496142;28;20582;-65
2023/07/23 14:17:46;;;;;;;2.37;2.13;;;;;;;-145.68;31.92;71445.56;10499973;28;20311;-65
2023/07/23 14:22:47;;;;;;;2.85;2.50;;;;;;;-145.68;31.41;71477.53;10499758;28;20542;-65
2023/07/23 14:27:48;;;;;;;4.90;2.80;;;;;;;-145.68;31.00;71577.41;10499693;28;20211;-65
2023/07/23 14:32:48;;;;;;;4.72;2.47;;;;;;;-145.68;31.29;71545.44;10499284;28;20298;-64
2023/07/23 14:37:48;;;;;;;5.63;3.15;;;;;;;-145.68;31.71;71569.44;10499438;28;20649;-64
2023/07/23 14:42:49;;;;;;;4.17;2.73;;;;;;;-145.68;32.00;71549.44;10498984;28;20747;-64
2023/07/23 14:47:49;;;;;;;3.03;2.72;;;;;;;-145.68;31.39;71631.34;10498984;28;20825;-64
2023/07/23 14:52:50;;;;;;;3.70;2.53;;;;;;;-145.68;30.98;71597.41;10513442;28;20603;-63
2023/07/23 14:57:50;;;;;;;6.38;2.67;;;;;;;-145.68;31.67;71631.34;10498708;28;20183;-63
2023/07/23 15:02:51;;;;;;;7.32;3.00;;;;;;;-145.68;31.95;71617.38;10498251;28;20215;-64
2023/07/23 15:07:51;;;;;;;3.70;2.85;;;;;;;-145.68;31.85;71621.38;10498099;28;20215;-64
2023/07/23 15:12:52;;;;;;;3.78;3.13;;;;;;;-145.68;31.85;71675.31;10498274;28;20211;-64
2023/07/23 15:17:52;;;;;;;5.63;3.90;;;;;;;-145.68;30.88;71639.34;10497626;28;20194;-64
2023/07/23 15:22:55;;;;;;;4.30;3.30;;;;;;;-145.68;31.64;71677.31;10497465;28;20578;-64
2023/07/23 15:27:58;;;;;;;7.18;3.20;;;;;;;-145.68;32.72;71699.28;10497253;28;20732;-64
2023/07/23 15:32:59;;;;;;;3.92;2.75;;;;;;;-145.68;32.16;71677.31;10489399;28;20204;-64
2023/07/23 15:37:59;;;;;;;5.10;3.35;;;;;;;-145.68;32.03;71729.25;10454067;28;20184;-65
2023/07/23 15:43:00;;;;;;;5.65;3.88;;;;;;;-145.68;34.88;71857.13;10453175;28;20295;-63
2023/07/23 15:48:00;;;;;;;6.00;3.72;;;;;;;-145.68;38.24;71996.97;10453298;28;20311;-65
2023/07/23 15:53:00;;;;;;;5.30;3.75;;;;;;;-145.68;37.05;72024.97;10453525;28;20206;-65
2023/07/23 15:58:01;;;;;;;8.93;3.30;;;;;;;-145.68;38.90;72012.97;10452655;28;20196;-64
2023/07/23 16:03:01;;;;;;;7.47;3.60;;;;;;;-145.68;38.90;72040.94;10453110;28;20216;-65
2023/07/23 16:08:01;;;;;;;4.47;3.55;;;;;;;-145.68;36.69;72000.97;10452624;28;20215;-64
2023/07/23 16:13:02;;;;;;;4.30;3.80;;;;;;;-145.68;35.88;71919.06;10453095;28;20215;-65
2023/07/23 16:18:03;;;;;;;4.70;3.80;;;;;;;-145.68;35.42;71921.06;10453372;28;20180;-65
2023/07/23 16:23:03;;;;;;;17.05;4.45;;;;;;;-145.68;35.63;71971.00;10453117;28;20343;-64
2023/07/23 16:28:05;;;;;;;7.28;4.05;;;;;;;-145.68;34.96;71947.03;10452971;28;20299;-64
2023/07/23 16:33:07;;;;;;;4.72;3.75;;;;;;;-145.68;34.58;71929.06;10452826;28;20239;-65
2023/07/23 16:38:11;;;;;;;6.15;3.67;;;;;;;-145.68;33.87;71931.06;10452328;28;20662;-64
2023/07/23 16:43:17;;;;;;;4.97;3.78;;;;;;;-145.68;34.27;71927.06;10452360;28;20208;-64
2023/07/23 16:48:18;;;;;;;4.43;3.40;;;;;;;-145.68;34.22;71973.00;10452112;28;20215;-64
2023/07/23 16:53:21;;;;;;;4.43;3.65;;;;;;;-145.68;33.74;71957.03;10451135;28;20238;-64
2023/07/23 16:58:23;;;;;;;5.15;3.35;;;;;;;-145.68;34.43;71911.06;10452390;28;20198;-64
2023/07/23 17:03:23;;;;;;;4.82;3.65;;;;;;;-145.68;33.85;71927.06;10451985;28;20709;-65
2023/07/23 17:08:23;;;;;;;3.47;2.65;;;;;;;-145.68;34.28;71907.06;10451883;28;20219;-65
2023/07/23 17:13:25;;;;;;;4.05;3.08;;;;;;;-145.68;34.71;71909.06;10451823;28;20631;-64
2023/07/23 17:18:25;;;;;;;2.72;2.47;;;;;;;-145.68;34.83;71989.00;10451700;28;20179;-64
2023/07/23 17:23:26;;;;;;;3.88;2.72;;;;;;;-145.68;35.45;72010.97;10451303;28;20235;-63
2023/07/23 17:28:26;;;;;;;3.55;2.80;;;;;;;-145.68;36.01;72082.91;10451658;28;20215;-65
2023/07/23 17:33:27;;;;;;;5.30;2.70;;;;;;;-145.68;36.85;72072.91;10451252;28;20303;-64
2023/07/23 17:38:28;;;;;;;3.33;2.35;;;;;;;-145.68;36.84;72052.94;10450532;28;20230;-64
2023/07/23 17:43:28;;;;;;;2.90;2.60;;;;;;;-145.68;37.08;72052.94;10448866;28;20693;-64
2023/07/23 17:48:28;;;;;;;3.08;2.30;;;;;;;-145.68;37.12;72052.94;10455504;28;20697;-64
2023/07/23 17:53:29;;;;;;;2.78;2.10;;;;;;;-145.68;37.54;72076.91;10457126;28;20698;-64
2023/07/23 17:58:29;;;;;;;2.42;2.22;;;;;;;-145.68;38.04;72102.88;10458671;28;20663;-64
2023/07/23 18:03:29;;;;;;;3.60;2.08;;;;;;;-145.68;38.69;72128.84;10458160;28;20222;-64
2023/07/23 18:08:30;;;;;;;3.30;2.35;;;;;;;-145.68;38.93;72112.88;10458778;28;20303;-65
2023/07/23 18:13:30;;;;;;;4.18;2.40;;;;;;;-145.68;39.24;72124.88;10458397;28;20204;-65
2023/07/23 18:18:31;;;;;;;6.45;2.70;;;;;;;-145.68;40.25;72142.84;10458245;28;20221;-65
2023/07/23 18:23:31;;;;;;;3.03;2.05;;;;;;;-145.68;40.53;72150.84;10458009;28;20386;-65
2023/07/23 18:28:32;;;;;;;4.00;2.22;;;;;;;-145.68;40.96;72162.81;10457773;28;20227;-65
2023/07/23 18:33:35;;;;;;;4.00;2.60;;;;;;;-145.68;41.17;72168.81;10457782;28;20579;-64
2023/07/23 18:38:35;;;;;;;5.40;2.53;;;;;;;-145.68;41.74;72172.81;10457382;28;20184;-65
2023/07/23 18:43:36;;;;;;;3.25;2.95;;;;;;;-145.68;42.20;72204.78;10457021;28;20216;-65
2023/07/23 18:48:36;;;;;;;4.55;2.92;;;;;;;-145.68;42.45;72244.75;10457452;28;20223;-65
2023/07/23 18:53:37;;;;;;;4.07;2.30;;;;;;;-145.68;43.28;72242.75;10455877;28;20776;-64
2023/07/23 18:58:37;;;;;;;3.70;2.38;;;;;;;-145.68;43.82;72248.75;10454640;28;20326;-64
2023/07/23 19:03:38;;;;;;;5.28;2.60;;;;;;;-145.68;44.25;72312.69;10455192;28;20251;-64
2023/07/23 19:08:39;;;;;;;4.22;3.20;;;;;;;-145.68;44.50;72320.69;10456613;28;20216;-64
2023/07/23 19:13:39;;;;;;;7.78;2.80;;;;;;;-145.68;45.46;72378.63;10455952;28;20215;-65
2023/07/23 19:18:40;;;;;;;4.97;3.15;;;;;;;-145.68;46.61;72424.59;10456074;28;20314;-64
2023/07/23 19:23:40;;;;;;;14.32;12.73;;;;;;;-145.68;47.63;72464.56;10455702;28;20227;-65
2023/07/23 19:28:41;;;;;;;3.70;2.90;;;;;;;-145.68;47.91;72528.50;10455573;28;20218;-64
2023/07/23 19:33:41;;;;;;;4.10;2.88;;;;;;;-145.68;47.39;72548.47;10455609;28;20227;-64
2023/07/23 19:38:41;;;;;;;3.47;2.63;;;;;;;-145.68;47.81;72586.44;10455157;28;20188;-63
2023/07/23 19:43:42;;;;;;;5.18;4.50;;;;;;;-145.68;48.20;72600.44;10455044;28;20216;-64
2023/07/23 19:48:43;;;;;;;5.53;3.97;;;;;;;-145.68;49.08;72622.41;10453510;28;20220;-63
2023/07/23 19:53:43;;;;;;;7.75;4.45;;;;;;;-145.68;48.90;72630.41;10452372;28;20206;-63
2023/07/23 19:58:46;;;;;;;3.78;3.10;;;;;;;-145.68;49.63;72634.41;10453827;28;20254;-64
2023/07/23 20:03:46;;;;;;;4.55;3.28;;;;;;;-145.68;49.75;72662.38;10453941;28;20265;-63
2023/07/23 20:08:46;;;;;;;3.65;3.20;;;;;;;-145.68;50.81;72696.34;10453206;28;20769;-63
2023/07/23 20:13:47;;;;;;;5.55;2.78;;;;;;;-145.68;50.70;72680.38;10453901;28;20700;-64
2023/07/23 20:18:47;;;;;;;5.95;3.00;;;;;;;-145.68;50.67;72672.38;10454051;28;20631;-63
2023/07/23 20:23:48;;;;;;;3.97;3.10;;;;;;;-145.68;50.97;72684.38;10453607;28;20606;-64
2023/07/23 20:28:48;;;;;;;6.80;3.20;;;;;;;-145.68;50.88;72674.38;10453378;28;20622;-63
2023/07/23 20:33:49;;;;;;;3.38;2.90;;;;;;;-145.68;50.94;72674.38;10453502;28;20291;-63
2023/07/23 20:38:50;;;;;;;6.85;3.00;;;;;;;-145.68;51.33;72680.38;10453099;28;20191;-63
2023/07/23 20:43:50;;;;;;;5.70;2.88;;;;;;;-145.68;51.35;72672.38;10453030;28;20219;-63
2023/07/23 20:48:50;;;;;;;3.75;2.97;;;;;;;-145.68;51.65;72676.38;10452685;28;20219;-64
2023/07/23 20:53:51;;;;;;;3.78;3.30;;;;;;;-145.68;51.63;72666.38;10452620;28;20216;-63
2023/07/23 20:58:52;;;;;;;3.53;3.03;;;;;;;-145.68;51.61;72648.41;10454122;28;20191;-63
2023/07/23 21:03:52;;;;;;;5.40;3.45;;;;;;;-145.68;51.41;72652.41;10453240;28;20675;-63
2023/07/23 21:08:52;;;;;;;7.05;3.35;;;;;;;-145.68;51.07;72632.41;10460366;28;20297;-63
2023/07/23 21:13:53;;;;;;;3.70;3.15;;;;;;;-145.68;51.37;72646.41;10453526;28;20207;-63
2023/07/23 21:18:53;;;;;;;3.50;2.60;;;;;;;-145.68;51.98;72654.41;10451213;28;20187;-62
2023/07/23 21:23:53;;;;;;;5.10;3.28;;;;;;;-145.68;52.30;72660.38;10463069;28;20239;-63
2023/07/23 21:28:54;;;;;;;3.90;3.08;;;;;;;-145.68;52.74;72672.38;10464769;28;20588;-63
2023/07/23 21:33:54;;;;;;;4.15;2.95;;;;;;;-145.68;53.11;72676.38;10464480;28;20683;-63
2023/07/23 21:38:55;;;;;;;5.32;3.10;;;;;;;-145.68;52.85;72664.38;10465710;28;20561;-63
2023/07/23 21:43:55;;;;;;;3.55;2.75;;;;;;;-145.68;52.84;72658.38;10465584;28;20246;-63
2023/07/23 21:48:55;;;;;;;5.55;3.22;;;;;;;-145.68;52.36;72634.41;10465486;28;20223;-63
2023/07/23 21:53:56;;;;;;;4.22;2.72;;;;;;;-145.68;51.95;72628.41;10465264;28;20227;-64
2023/07/23 21:58:56;;;;;;;3.42;3.05;;;;;;;-145.68;51.18;72602.44;10465544;28;20188;-64
2023/07/23 22:03:57;;;;;;;6.07;3.58;;;;;;;-145.68;51.37;72608.44;10465524;28;20294;-63
2023/07/23 22:08:57;;;;;;;3.80;3.38;;;;;;;-145.68;51.40;72594.44;10465080;28;20219;-63
2023/07/23 22:13:57;;;;;;;5.57;3.30;;;;;;;-145.68;51.05;72566.47;10465204;28;20286;-63
2023/07/23 22:18:58;;;;;;;6.93;3.40;;;;;;;-145.68;51.09;72572.47;10464955;28;20195;-64
2023/07/23 22:23:59;;;;;;;5.93;3.42;;;;;;;-145.68;50.85;72548.47;10464662;28;20242;-63
2023/07/23 22:28:59;;;;;;;4.80;3.03;;;;;;;-145.68;50.68;72546.47;10464830;28;20313;-63
2023/07/23 22:34:01;;;;;;;4.45;3.47;;;;;;;-145.68;50.65;72538.50;10459259;28;20753;-63
2023/07/23 22:39:01;;;;;;;4.25;3.42;;;;;;;-145.68;50.08;72520.50;10458248;28;20183;-63
2023/07/23 22:44:02;;;;;;;5.13;3.00;;;;;;;-145.68;49.75;72498.53;10457578;28;20208;-63
2023/07/23 22:49:02;;;;;;;4.78;3.60;;;;;;;-145.68;49.23;72478.53;10457678;28;20227;-64